Time;durP1;ratioP1;P1;durP2;ratioP2;P2;SDS_P1;SDS_P2;PMS_P1;PMS_P2;Temp;Humidity;BMP_temperature;BMP_pressure;BME280_temperature;BME280_humidity;BME280_pressure;Samples;Min_cycle;Max_cycle;Signal;HPM_P1;HPM_P2
2023/12/30 00:00:05;;;;;;;7.72;5.40;;;;;;;3.98;100.00;62411.09;5107678;28;20239;-77
2023/12/30 00:02:32;;;;;;;8.52;6.70;;;;;;;3.97;100.00;62407.53;5105823;28;20199;-80
2023/12/30 00:05:01;;;;;;;11.00;6.40;;;;;;;3.95;100.00;62408.00;5107778;28;20397;-78
2023/12/30 00:07:27;;;;;;;9.27;6.68;;;;;;;4.03;100.00;62410.69;5110114;28;20196;-77
2023/12/30 00:09:54;;;;;;;6.00;5.32;;;;;;;3.99;100.00;62414.13;5112261;28;20288;-79
2023/12/30 00:12:21;;;;;;;5.72;5.15;;;;;;;3.89;100.00;62399.31;5107609;28;20199;-78
2023/12/30 00:14:48;;;;;;;5.85;4.82;;;;;;;3.93;100.00;62400.91;5108657;28;20408;-80
2023/12/30 00:17:16;;;;;;;6.55;5.43;;;;;;;3.86;100.00;62395.72;5106639;28;20239;-78
2023/12/30 00:19:45;;;;;;;6.88;5.13;;;;;;;3.82;100.00;62397.16;5107047;28;20398;-80
2023/12/30 00:22:13;;;;;;;9.20;5.93;;;;;;;3.76;100.00;62388.47;5107673;28;20223;-78
2023/12/30 00:24:42;;;;;;;7.88;6.63;;;;;;;3.74;100.00;62380.84;5111227;28;20216;-78
2023/12/30 00:27:08;;;;;;;7.70;5.45;;;;;;;3.66;100.00;62375.66;5107320;28;20241;-79
2023/12/30 00:29:39;;;;;;;7.25;5.90;;;;;;;3.73;100.00;62380.34;5111236;28;20216;-79
2023/12/30 00:32:06;;;;;;;6.85;5.40;;;;;;;3.64;100.00;62376.13;5111352;28;20203;-80
2023/12/30 00:34:33;;;;;;;7.22;6.45;;;;;;;3.63;100.00;62370.06;5111218;28;20283;-79
2023/12/30 00:37:00;;;;;;;8.20;5.95;;;;;;;3.58;100.00;62369.44;5111892;28;20231;-78
2023/12/30 00:39:29;;;;;;;9.25;6.30;;;;;;;3.51;100.00;62362.75;5116049;28;20226;-79
2023/12/30 00:41:55;;;;;;;9.23;6.85;;;;;;;3.49;100.00;62355.66;5110718;28;20207;-79
2023/12/30 00:44:23;;;;;;;10.15;6.15;;;;;;;3.46;100.00;62358.13;5110826;28;20242;-79
2023/12/30 00:46:50;;;;;;;9.45;5.63;;;;;;;3.44;100.00;62356.06;5111680;28;20196;-78
2023/12/30 00:49:17;;;;;;;8.30;5.55;;;;;;;3.46;100.00;62355.09;5110168;28;20224;-79
2023/12/30 00:51:44;;;;;;;9.15;6.25;;;;;;;3.40;100.00;62349.44;5110683;28;20192;-79
2023/12/30 00:54:11;;;;;;;6.63;5.38;;;;;;;3.37;100.00;62348.88;5115214;28;20216;-78
2023/12/30 00:56:39;;;;;;;7.55;5.50;;;;;;;3.38;100.00;62346.88;5110232;28;20231;-78
2023/12/30 00:59:06;;;;;;;7.47;5.13;;;;;;;3.38;100.00;62346.88;5110445;28;20219;-79
2023/12/30 01:01:33;;;;;;;6.15;4.70;;;;;;;3.36;100.00;62347.34;5110722;28;20195;-79
2023/12/30 01:04:00;;;;;;;9.77;5.72;;;;;;;3.32;100.00;62338.19;5110718;28;20262;-78
2023/12/30 01:06:27;;;;;;;7.13;4.95;;;;;;;3.31;100.00;62340.19;5110326;28;20192;-78
2023/12/30 01:08:54;;;;;;;6.97;4.90;;;;;;;3.31;100.00;62342.69;5112573;28;20196;-78
2023/12/30 01:11:22;;;;;;;8.43;5.47;;;;;;;3.25;100.00;62333.50;5111131;28;20188;-78
2023/12/30 01:13:50;;;;;;;6.18;5.47;;;;;;;3.33;100.00;62344.75;5111440;28;20204;-79
2023/12/30 01:16:18;;;;;;;8.75;5.88;;;;;;;3.32;100.00;62340.69;5110391;28;20277;-79
2023/12/30 01:18:45;;;;;;;7.68;5.25;;;;;;;3.30;100.00;62333.59;5112431;28;20192;-80
2023/12/30 01:21:12;;;;;;;10.13;5.43;;;;;;;3.26;100.00;62339.56;5110987;28;20228;-79
2023/12/30 01:23:38;;;;;;;5.97;5.43;;;;;;;3.27;100.00;62338.06;5113350;28;20183;-77
2023/12/30 01:26:05;;;;;;;5.85;5.30;;;;;;;3.23;100.00;62334.47;5111655;28;20210;-78
2023/12/30 01:28:34;;;;;;;7.68;5.05;;;;;;;3.18;100.00;62323.78;5110676;28;20217;-82
2023/12/30 01:31:02;;;;;;;7.00;4.80;;;;;;;3.17;100.00;62325.28;5110246;28;20227;-79
2023/12/30 01:33:29;;;;;;;7.75;5.03;;;;;;;3.14;100.00;62322.72;5109784;28;20375;-78
2023/12/30 01:35:56;;;;;;;10.48;7.30;;;;;;;3.23;100.00;62331.44;5109516;28;20216;-79
2023/12/30 01:38:23;;;;;;;9.57;6.40;;;;;;;3.16;100.00;62327.28;5112376;28;20232;-79
2023/12/30 01:40:49;;;;;;;5.95;5.32;;;;;;;3.01;100.00;62306.84;5109472;28;20224;-78
2023/12/30 01:43:26;;;;;;;7.93;6.85;;;;;;;3.04;100.00;62316.94;5109760;28;20208;-78
2023/12/30 01:45:53;;;;;;;15.75;9.30;;;;;;;3.00;100.00;62307.81;5109062;28;20556;-79
2023/12/30 01:48:22;;;;;;;11.65;7.38;;;;;;;3.11;100.00;62319.63;5108980;28;20234;-78
2023/12/30 01:50:49;;;;;;;14.45;8.02;;;;;;;3.00;100.00;62308.31;5109448;28;20250;-79
2023/12/30 01:53:16;;;;;;;9.70;7.35;;;;;;;3.06;100.00;62309.47;5111704;28;20198;-78
2023/12/30 01:55:44;;;;;;;9.07;6.43;;;;;;;3.10;100.00;62321.13;5111615;28;20220;-79
2023/12/30 01:58:11;;;;;;;10.95;7.28;;;;;;;3.10;100.00;62316.09;5108020;28;20235;-78
2023/12/30 02:00:38;;;;;;;12.60;8.93;;;;;;;3.10;100.00;62313.59;5107866;28;20204;-78
2023/12/30 02:03:05;;;;;;;11.88;7.50;;;;;;;3.07;100.00;62312.50;5109888;28;20196;-78
2023/12/30 02:05:33;;;;;;;8.95;6.53;;;;;;;2.99;100.00;62301.75;5108582;28;20219;-79
2023/12/30 02:08:00;;;;;;;14.07;7.97;;;;;;;2.98;100.00;62303.25;5106872;28;20247;-77
2023/12/30 02:10:26;;;;;;;11.85;7.43;;;;;;;2.99;100.00;62307.28;5113917;28;20224;-79
2023/12/30 02:12:53;;;;;;;9.40;7.00;;;;;;;3.05;100.00;62318.50;5108202;28;20216;-77
2023/12/30 02:15:22;;;;;;;21.60;10.60;;;;;;;3.04;100.00;62314.94;5107872;28;20257;-78
2023/12/30 02:17:51;;;;;;;13.77;9.85;;;;;;;3.01;100.00;62308.84;5110246;28;20228;-79
2023/12/30 02:20:18;;;;;;;15.85;8.90;;;;;;;3.02;100.00;62309.88;5108742;28;20292;-78
2023/12/30 02:22:46;;;;;;;10.82;8.05;;;;;;;3.07;100.00;62315.50;5107168;28;20199;-79
2023/12/30 02:25:13;;;;;;;13.43;8.63;;;;;;;2.96;100.00;62306.22;5109946;28;20241;-78
2023/12/30 02:27:42;;;;;;;11.50;8.80;;;;;;;2.95;100.00;62300.66;5107397;28;20321;-79
2023/12/30 02:30:09;;;;;;;14.50;8.57;;;;;;;2.92;100.00;62302.63;5109404;28;20226;-78
2023/12/30 02:32:37;;;;;;;13.02;8.43;;;;;;;2.95;100.00;62300.16;5107720;28;20200;-79
2023/12/30 02:35:04;;;;;;;10.18;7.70;;;;;;;2.97;100.00;62305.25;5107889;28;20216;-77
2023/12/30 02:37:31;;;;;;;10.20;7.32;;;;;;;2.96;100.00;62301.69;5108508;28;20292;-77
2023/12/30 02:39:59;;;;;;;12.52;7.90;;;;;;;2.88;100.00;62301.00;5107100;28;20473;-78
2023/12/30 02:42:26;;;;;;;12.38;7.53;;;;;;;2.90;100.00;62297.53;5109707;28;20249;-78
2023/12/30 02:44:53;;;;;;;11.13;6.57;;;;;;;2.90;100.00;62295.03;5109148;28;20541;-76
2023/12/30 02:47:20;;;;;;;10.13;6.35;;;;;;;2.92;100.00;62297.06;5108504;28;20219;-78
2023/12/30 02:49:47;;;;;;;9.88;6.38;;;;;;;3.05;100.00;62310.44;5107678;28;20283;-77
2023/12/30 02:52:14;;;;;;;10.30;5.95;;;;;;;3.05;100.00;62313.47;5106435;28;20202;-78
2023/12/30 02:54:40;;;;;;;7.72;6.32;;;;;;;2.99;100.00;62306.78;5109743;28;20223;-78
2023/12/30 02:57:09;;;;;;;9.32;6.03;;;;;;;2.92;100.00;62297.06;5106548;28;20421;-79
2023/12/30 02:59:36;;;;;;;7.25;6.07;;;;;;;3.04;100.00;62314.44;5108350;28;20227;-78
2023/12/30 03:02:03;;;;;;;6.60;5.60;;;;;;;2.96;100.00;62304.22;5106758;28;20291;-78
2023/12/30 03:04:30;;;;;;;8.82;5.80;;;;;;;2.98;100.00;62306.28;5108695;28;20439;-78
2023/12/30 03:06:57;;;;;;;10.15;7.70;;;;;;;3.02;100.00;62307.34;5107762;28;20434;-79
2023/12/30 03:09:24;;;;;;;11.43;6.75;;;;;;;2.76;100.00;62283.16;5107214;28;20216;-78
2023/12/30 03:11:51;;;;;;;8.27;6.68;;;;;;;2.95;100.00;62300.16;5109018;28;20551;-78
2023/12/30 03:14:19;;;;;;;8.63;6.05;;;;;;;2.91;100.00;62299.09;5109427;28;20253;-78
2023/12/30 03:16:46;;;;;;;13.65;8.73;;;;;;;2.89;100.00;62299.53;5108323;28;20195;-78
2023/12/30 03:19:13;;;;;;;19.60;11.90;;;;;;;2.97;100.00;62302.22;5107854;28;20246;-78
2023/12/30 03:21:40;;;;;;;8.52;7.60;;;;;;;2.96;100.00;62306.72;5107676;28;20578;-78
2023/12/30 03:24:07;;;;;;;10.43;8.40;;;;;;;2.73;100.00;62280.06;5106252;28;20222;-77
2023/12/30 03:26:34;;;;;;;14.25;8.85;;;;;;;2.69;100.00;62275.97;5107089;28;20250;-78
2023/12/30 03:29:01;;;;;;;17.77;11.57;;;;;;;2.68;100.00;62275.44;5108315;28;20215;-78
2023/12/30 03:31:29;;;;;;;14.65;10.93;;;;;;;2.66;100.00;62270.88;5108168;28;20395;-78
2023/12/30 03:33:57;;;;;;;20.90;12.20;;;;;;;2.58;100.00;62262.66;5106341;28;20271;-78
2023/12/30 03:36:24;;;;;;;16.23;10.52;;;;;;;2.49;100.00;62252.88;5107012;28;20200;-79
2023/12/30 03:38:52;;;;;;;16.52;9.98;;;;;;;2.47;100.00;62253.88;5106959;28;20223;-77
2023/12/30 03:41:19;;;;;;;16.67;10.57;;;;;;;2.49;100.00;62253.41;5106990;28;20196;-77
2023/12/30 03:43:46;;;;;;;18.63;11.57;;;;;;;2.50;100.00;62251.41;5106546;28;20203;-78
2023/12/30 03:46:13;;;;;;;14.50;10.70;;;;;;;2.48;100.00;62254.38;5110320;28;20203;-80
2023/12/30 03:48:41;;;;;;;15.50;9.30;;;;;;;2.53;100.00;62255.00;5106376;28;20192;-77
2023/12/30 03:51:09;;;;;;;13.50;9.73;;;;;;;2.54;100.00;62261.06;5108269;28;20196;-78
2023/12/30 03:53:35;;;;;;;15.00;9.30;;;;;;;2.60;100.00;62267.22;5107648;28;20324;-78
2023/12/30 03:56:02;;;;;;;14.70;9.15;;;;;;;2.59;100.00;62268.19;5105940;28;20461;-78
2023/12/30 03:58:29;;;;;;;11.95;8.40;;;;;;;2.70;100.00;62274.47;5105031;28;20219;-79
2023/12/30 04:00:56;;;;;;;11.15;7.72;;;;;;;2.82;100.00;62287.31;5108034;28;20231;-78
2023/12/30 04:03:23;;;;;;;9.18;8.10;;;;;;;2.83;100.00;62287.84;5107487;28;20192;-77
2023/12/30 04:05:51;;;;;;;12.15;7.40;;;;;;;2.85;100.00;62290.41;5110829;28;20215;-78
2023/12/30 04:08:21;;;;;;;11.40;7.03;;;;;;;2.85;100.00;62292.38;5113653;28;20219;-80
2023/12/30 04:10:49;;;;;;;8.52;6.22;;;;;;;2.91;100.00;62296.56;5116107;28;20223;-80
2023/12/30 04:13:16;;;;;;;11.05;8.25;;;;;;;2.88;100.00;62293.47;5114121;28;20192;-79
2023/12/30 04:15:44;;;;;;;11.27;7.95;;;;;;;2.93;100.00;62300.63;5112219;28;20215;-79
2023/12/30 04:18:12;;;;;;;8.40;6.72;;;;;;;2.92;100.00;62299.59;5115320;28;20231;-81
2023/12/30 04:20:39;;;;;;;9.93;7.53;;;;;;;2.91;100.00;62298.56;5112998;28;20227;-79
2023/12/30 04:23:07;;;;;;;9.15;6.60;;;;;;;2.91;100.00;62299.09;5109707;28;20188;-79
2023/12/30 04:25:34;;;;;;;7.20;6.50;;;;;;;2.91;100.00;62293.53;5110378;28;20220;-78
2023/12/30 04:28:01;;;;;;;10.85;7.95;;;;;;;2.91;100.00;62296.56;5109693;28;20296;-78
2023/12/30 04:30:28;;;;;;;10.55;8.43;;;;;;;2.93;100.00;62298.09;5111227;28;20280;-78
2023/12/30 04:32:55;;;;;;;10.40;7.18;;;;;;;2.90;100.00;62300.06;5111630;28;20196;-78
2023/12/30 04:35:22;;;;;;;13.75;9.45;;;;;;;2.75;100.00;62279.59;5110522;28;20216;-79
2023/12/30 04:37:49;;;;;;;12.85;8.45;;;;;;;2.72;100.00;62282.06;5110754;28;20243;-78
2023/12/30 04:40:18;;;;;;;11.60;8.30;;;;;;;2.66;100.00;62272.88;5109561;28;20254;-78
2023/12/30 04:42:44;;;;;;;11.35;8.13;;;;;;;2.63;100.00;62270.31;5111495;28;20204;-78
2023/12/30 04:45:12;;;;;;;12.40;7.45;;;;;;;2.59;100.00;62266.19;5112218;28;20224;-78
2023/12/30 04:47:40;;;;;;;9.13;6.75;;;;;;;2.54;100.00;62263.06;5110394;28;20259;-79
2023/12/30 04:50:08;;;;;;;9.57;7.43;;;;;;;2.50;100.00;62254.44;5109596;28;20242;-79
2023/12/30 04:52:35;;;;;;;11.38;6.03;;;;;;;2.47;100.00;62250.84;5110732;28;20196;-79
2023/12/30 04:55:02;;;;;;;8.02;5.85;;;;;;;2.46;100.00;62250.34;5109682;28;20409;-77
2023/12/30 04:57:31;;;;;;;7.78;5.63;;;;;;;2.45;100.00;62249.28;5109049;28;20192;-78
2023/12/30 04:59:58;;;;;;;6.07;5.13;;;;;;;2.46;100.00;62249.81;5111601;28;20682;-78
2023/12/30 05:02:25;;;;;;;6.88;5.82;;;;;;;2.56;100.00;62262.59;5110995;28;20255;-79
2023/12/30 05:04:52;;;;;;;7.00;5.07;;;;;;;2.53;100.00;62260.03;5110512;28;20223;-78
2023/12/30 05:07:18;;;;;;;5.28;4.78;;;;;;;2.59;100.00;62263.19;5109769;28;20241;-78
2023/12/30 05:09:45;;;;;;;12.45;6.40;;;;;;;2.56;100.00;62263.13;5109323;28;20536;-78
2023/12/30 05:12:12;;;;;;;8.15;6.05;;;;;;;2.59;100.00;62268.19;5111364;28;20192;-78
2023/12/30 05:14:41;;;;;;;16.33;7.05;;;;;;;2.64;100.00;62266.28;5108574;28;20216;-78
2023/12/30 05:17:08;;;;;;;7.60;6.00;;;;;;;2.63;100.00;62270.31;5109256;28;20230;-78
2023/12/30 05:19:35;;;;;;;7.95;6.15;;;;;;;2.74;100.00;62283.59;5109269;28;20224;-78
2023/12/30 05:22:01;;;;;;;10.07;7.15;;;;;;;2.71;100.00;62275.50;5116297;28;20220;-79
2023/12/30 05:24:28;;;;;;;13.60;6.40;;;;;;;2.68;100.00;62277.94;5109223;28;20332;-79
2023/12/30 05:26:55;;;;;;;8.70;5.85;;;;;;;2.70;100.00;62277.50;5108889;28;20245;-78
2023/12/30 05:29:22;;;;;;;9.15;5.68;;;;;;;2.70;100.00;62276.97;5111979;28;20224;-78
2023/12/30 05:31:51;;;;;;;6.38;4.60;;;;;;;2.69;100.00;62281.50;5108609;28;20246;-78
2023/12/30 05:34:18;;;;;;;4.65;4.20;;;;;;;2.87;100.00;62289.94;5110085;28;20223;-79
2023/12/30 05:36:45;;;;;;;6.05;5.47;;;;;;;2.80;100.00;62282.75;5109548;28;20427;-78
2023/12/30 05:39:14;;;;;;;4.88;4.45;;;;;;;2.77;100.00;62279.16;5112885;28;20261;-78
2023/12/30 05:41:41;;;;;;;6.85;4.00;;;;;;;2.71;100.00;62275.50;5108874;28;20188;-79
2023/12/30 05:44:07;;;;;;;7.13;4.63;;;;;;;2.73;100.00;62278.06;5108831;28;20283;-78
2023/12/30 05:46:35;;;;;;;6.95;4.60;;;;;;;2.78;100.00;62283.19;5108742;28;20207;-79
2023/12/30 05:49:03;;;;;;;5.15;4.72;;;;;;;2.73;100.00;62280.06;5110329;28;20219;-78
2023/12/30 05:51:30;;;;;;;6.45;4.50;;;;;;;2.76;100.00;62280.63;5109410;28;20200;-78
2023/12/30 05:53:57;;;;;;;5.35;4.68;;;;;;;2.74;100.00;62286.13;5111679;28;20222;-79
2023/12/30 05:56:23;;;;;;;7.88;5.60;;;;;;;2.75;100.00;62280.13;5109837;28;20202;-79
2023/12/30 05:58:50;;;;;;;5.82;4.88;;;;;;;2.69;100.00;62276.47;5108947;28;20569;-78
2023/12/30 06:01:17;;;;;;;8.73;5.50;;;;;;;2.69;100.00;62276.47;5109054;28;20192;-78
2023/12/30 06:03:44;;;;;;;10.88;6.40;;;;;;;2.64;100.00;62268.31;5108948;28;20192;-79
2023/12/30 06:06:12;;;;;;;10.13;7.35;;;;;;;2.63;100.00;62272.81;5108482;28;20554;-78
2023/12/30 06:08:39;;;;;;;16.83;9.85;;;;;;;2.63;100.00;62267.28;5110888;28;20223;-79
2023/12/30 06:11:04;;;;;;;15.20;9.93;;;;;;;2.61;100.00;62268.25;5110350;28;20214;-79
2023/12/30 06:13:33;;;;;;;6.68;5.95;;;;;;;2.66;100.00;62273.38;5109474;28;20200;-79
2023/12/30 06:16:00;;;;;;;9.55;6.07;;;;;;;2.62;100.00;62269.28;5108748;28;20471;-78
2023/12/30 06:18:30;;;;;;;7.80;6.75;;;;;;;2.58;100.00;62260.16;5108953;28;20397;-78
2023/12/30 06:20:57;;;;;;;7.53;5.97;;;;;;;2.57;100.00;62263.63;5111438;28;20226;-80
2023/12/30 06:23:27;;;;;;;8.02;6.75;;;;;;;2.55;100.00;62264.59;5108137;28;20211;-80
2023/12/30 06:25:55;;;;;;;10.65;8.20;;;;;;;2.49;100.00;62253.41;5110445;28;20204;-78
2023/12/30 06:28:24;;;;;;;11.02;7.90;;;;;;;2.46;100.00;62250.34;5107562;28;20237;-79
2023/12/30 06:30:51;;;;;;;8.45;6.90;;;;;;;2.38;100.00;62242.13;5108219;28;20216;-80
2023/12/30 06:33:17;;;;;;;8.77;6.90;;;;;;;2.37;100.00;62238.56;5107458;28;20196;-79
2023/12/30 06:35:44;;;;;;;11.23;6.82;;;;;;;2.26;100.00;62227.28;5108526;28;20237;-79
2023/12/30 06:38:11;;;;;;;8.75;6.47;;;;;;;2.29;100.00;62235.91;5109558;28;20231;-79
2023/12/30 06:40:41;;;;;;;6.45;5.70;;;;;;;2.20;100.00;62223.63;5108139;28;20220;-78
2023/12/30 06:43:08;;;;;;;12.13;6.95;;;;;;;2.20;100.00;62226.66;5109466;28;20227;-79
2023/12/30 06:45:35;;;;;;;9.00;6.28;;;;;;;2.27;100.00;62233.31;5109233;28;20254;-78
2023/12/30 06:48:03;;;;;;;9.18;6.90;;;;;;;2.36;100.00;62245.09;5108126;28;20203;-78
2023/12/30 06:50:30;;;;;;;11.77;7.25;;;;;;;2.35;100.00;62239.03;5109698;28;20242;-78
2023/12/30 06:52:57;;;;;;;11.38;9.73;;;;;;;2.38;100.00;62241.59;5110783;28;20196;-78
2023/12/30 06:55:24;;;;;;;13.25;8.18;;;;;;;2.45;100.00;62246.78;5106826;28;20216;-77
2023/12/30 06:57:53;;;;;;;12.50;6.75;;;;;;;2.46;100.00;62254.84;5108792;28;20196;-78
2023/12/30 07:00:20;;;;;;;13.00;8.00;;;;;;;2.48;100.00;62252.38;5110690;28;20212;-77
2023/12/30 07:02:47;;;;;;;13.75;8.45;;;;;;;2.40;100.00;62243.66;5107966;28;20214;-79
2023/12/30 07:05:14;;;;;;;10.57;8.45;;;;;;;2.33;100.00;62236.97;5108301;28;20268;-79
2023/12/30 07:07:41;;;;;;;13.93;9.00;;;;;;;2.43;100.00;62244.22;5109642;28;20272;-77
2023/12/30 07:10:08;;;;;;;14.77;10.02;;;;;;;2.50;100.00;62256.97;5107137;28;20393;-78
2023/12/30 07:12:35;;;;;;;14.00;8.63;;;;;;;2.53;100.00;62260.03;5106836;28;20204;-79
2023/12/30 07:15:04;;;;;;;13.18;8.70;;;;;;;2.65;100.00;62269.34;5108328;28;20223;-78
2023/12/30 07:17:31;;;;;;;11.50;7.65;;;;;;;2.76;100.00;62280.63;5108614;28;20292;-78
2023/12/30 07:19:58;;;;;;;8.82;5.72;;;;;;;2.85;100.00;62287.34;5107039;28;20532;-77
2023/12/30 07:22:25;;;;;;;6.80;5.57;;;;;;;2.99;100.00;62307.28;5107160;28;20203;-78
2023/12/30 07:24:52;;;;;;;7.22;5.85;;;;;;;3.11;100.00;62322.16;5109807;28;20275;-80
2023/12/30 07:27:19;;;;;;;9.07;6.03;;;;;;;3.24;100.00;62335.53;5106022;28;20455;-78
2023/12/30 07:29:46;;;;;;;7.38;6.63;;;;;;;3.38;100.00;62342.34;5108091;28;20223;-78
2023/12/30 07:32:14;;;;;;;10.77;7.47;;;;;;;3.43;100.00;62352.53;5106456;28;20196;-77
2023/12/30 07:34:41;;;;;;;9.27;7.30;;;;;;;3.58;100.00;62359.88;5106979;28;20277;-78
2023/12/30 07:37:08;;;;;;;16.25;10.75;;;;;;;3.65;100.00;62376.63;5106796;28;20192;-79
2023/12/30 07:39:35;;;;;;;25.77;15.30;;;;;;;3.58;100.00;62372.47;5111452;28;20236;-78
2023/12/30 07:42:03;;;;;;;26.85;14.85;;;;;;;3.67;100.00;62376.69;5110172;28;20203;-78
2023/12/30 07:44:33;;;;;;;23.98;15.43;;;;;;;3.70;100.00;62376.75;5110214;28;20283;-78
2023/12/30 07:47:00;;;;;;;19.48;13.80;;;;;;;3.58;100.00;62369.44;5110489;28;20405;-78
2023/12/30 07:49:29;;;;;;;22.13;15.70;;;;;;;3.44;100.00;62351.03;5112048;28;20220;-78
2023/12/30 07:51:56;;;;;;;23.73;17.02;;;;;;;3.38;100.00;62341.84;5111824;28;20204;-78
2023/12/30 07:54:23;;;;;;;27.67;17.52;;;;;;;3.39;100.00;62345.38;5110040;28;20223;-78
2023/12/30 07:56:49;;;;;;;29.65;19.15;;;;;;;3.51;100.00;62360.25;5113436;28;20199;-77
2023/12/30 07:59:16;;;;;;;33.10;20.58;;;;;;;3.50;100.00;62357.19;5110604;28;20520;-78
2023/12/30 08:01:44;;;;;;;32.08;20.35;;;;;;;3.65;100.00;62374.63;5110448;28;20192;-78
2023/12/30 08:04:11;;;;;;;27.38;17.77;;;;;;;3.80;100.00;62392.06;5111192;28;20261;-79
2023/12/30 08:06:40;;;;;;;26.88;17.92;;;;;;;3.85;100.00;62395.19;5111591;28;20196;-78
2023/12/30 08:09:07;;;;;;;26.00;18.52;;;;;;;3.88;100.00;62402.81;5110604;28;20227;-79
2023/12/30 08:11:35;;;;;;;26.92;18.58;;;;;;;3.84;100.00;62389.16;5112667;28;20251;-78
2023/12/30 08:14:02;;;;;;;31.45;21.80;;;;;;;3.97;100.00;62407.53;5110466;28;20212;-78
2023/12/30 08:16:29;;;;;;;29.00;20.17;;;;;;;4.05;100.00;62412.75;5111293;28;20266;-78
2023/12/30 08:18:55;;;;;;;31.58;20.40;;;;;;;4.14;100.00;62419.50;5109651;28;20511;-79
2023/12/30 08:21:22;;;;;;;34.90;21.00;;;;;;;4.21;100.00;62432.22;5110952;28;20193;-78
2023/12/30 08:23:51;;;;;;;24.98;19.17;;;;;;;4.07;100.00;62414.81;5110103;28;20208;-78
2023/12/30 08:26:17;;;;;;;30.20;20.60;;;;;;;4.11;100.00;62419.44;5111414;28;20227;-78
2023/12/30 08:28:45;;;;;;;32.63;20.70;;;;;;;4.30;100.00;62438.47;5109635;28;20188;-78
2023/12/30 08:31:12;;;;;;;27.73;19.25;;;;;;;4.34;100.00;62445.09;5110863;28;20466;-78
2023/12/30 08:33:40;;;;;;;34.92;20.00;;;;;;;4.50;100.00;62461.56;5109658;28;20195;-78
2023/12/30 08:36:07;;;;;;;27.02;19.58;;;;;;;4.65;100.00;62479.53;5109724;28;20265;-80
2023/12/30 08:38:34;;;;;;;31.63;20.30;;;;;;;4.68;100.00;62480.09;5109633;28;20373;-78
2023/12/30 08:41:02;;;;;;;26.30;18.27;;;;;;;4.65;100.00;62477.00;5115217;28;20219;-78
2023/12/30 08:43:29;;;;;;;34.38;19.27;;;;;;;4.77;100.00;62488.84;5109543;28;20204;-78
2023/12/30 08:45:56;;;;;;;27.50;17.42;;;;;;;4.88;100.00;62500.16;5109175;28;20313;-78
2023/12/30 08:48:23;;;;;;;30.85;18.40;;;;;;;5.03;100.00;62513.59;5109903;28;20241;-78
2023/12/30 08:50:50;;;;;;;30.42;19.02;;;;;;;5.11;100.00;62521.34;5110617;28;20223;-78
2023/12/30 08:53:18;;;;;;;24.42;18.08;;;;;;;5.13;100.00;62523.91;5109176;28;20261;-79
2023/12/30 08:55:45;;;;;;;30.08;18.40;;;;;;;5.14;100.00;62526.94;5112539;28;20226;-80
2023/12/30 08:58:13;;;;;;;27.88;18.95;;;;;;;5.12;100.00;62524.88;5111392;28;20207;-78
2023/12/30 09:00:41;;;;;;;25.80;17.58;;;;;;;5.14;100.00;62527.47;5109258;28;20242;-79
2023/12/30 09:03:08;;;;;;;28.15;18.25;;;;;;;5.35;100.00;62546.56;5109920;28;20313;-78
2023/12/30 09:05:35;;;;;;;32.15;19.40;;;;;;;5.38;100.00;62551.66;5110305;28;20283;-79
2023/12/30 09:08:04;;;;;;;32.85;19.67;;;;;;;5.57;100.00;62574.28;5110638;28;20212;-78
2023/12/30 09:10:31;;;;;;;33.08;19.70;;;;;;;5.73;100.00;62588.22;5113000;28;20208;-78
2023/12/30 09:12:58;;;;;;;29.45;20.20;;;;;;;5.69;100.00;62586.13;5112455;28;20266;-79
2023/12/30 09:15:26;;;;;;;31.38;19.80;;;;;;;5.74;100.00;62591.81;5110013;28;20489;-78
2023/12/30 09:17:55;;;;;;;28.30;20.25;;;;;;;5.90;100.00;62602.22;5111625;28;20214;-79
2023/12/30 09:20:22;;;;;;;30.92;19.55;;;;;;;5.99;100.00;62614.53;5111097;28;20254;-78
2023/12/30 09:22:49;;;;;;;28.30;19.80;;;;;;;5.85;100.00;62598.09;5111290;28;20223;-79
2023/12/30 09:25:16;;;;;;;33.85;19.33;;;;;;;5.68;100.00;62585.59;5110207;28;20223;-78
2023/12/30 09:27:43;;;;;;;30.60;18.10;;;;;;;5.84;100.00;62599.06;5111036;28;20245;-78
2023/12/30 09:30:10;;;;;;;30.50;19.67;;;;;;;5.85;100.00;62603.16;5110202;28;20411;-78
2023/12/30 09:32:39;;;;;;;27.23;18.83;;;;;;;5.95;100.00;62607.38;5110709;28;20204;-79
2023/12/30 09:35:07;;;;;;;29.05;18.20;;;;;;;6.06;100.00;62616.19;5110625;28;20222;-79
2023/12/30 09:37:34;;;;;;;37.83;19.90;;;;;;;5.97;100.00;62612.47;5110628;28;20203;-78
2023/12/30 09:40:01;;;;;;;30.55;18.58;;;;;;;5.98;100.00;62608.44;5109429;28;20251;-78
2023/12/30 09:42:28;;;;;;;27.88;19.63;;;;;;;6.17;100.00;62630.56;5109867;28;20250;-78
2023/12/30 09:44:55;;;;;;;31.10;18.65;;;;;;;6.34;100.00;62648.09;5111405;28;20211;-78
2023/12/30 09:47:22;;;;;;;30.30;19.25;;;;;;;6.47;100.00;62663.50;5110546;28;20356;-78
2023/12/30 09:49:51;;;;;;;27.63;18.42;;;;;;;6.45;100.00;62656.91;5109759;28;20227;-79
2023/12/30 09:52:18;;;;;;;30.73;20.25;;;;;;;6.69;100.00;62683.66;5110099;28;20252;-77
2023/12/30 09:54:45;;;;;;;31.75;18.58;;;;;;;6.86;100.00;62701.19;5110227;28;20216;-78
2023/12/30 09:57:12;;;;;;;30.40;19.08;;;;;;;7.05;100.00;62723.31;5110570;28;20303;-78
2023/12/30 09:59:40;;;;;;;27.42;18.23;;;;;;;6.91;100.00;62706.88;5109539;28;20321;-78
2023/12/30 10:02:08;;;;;;;30.30;18.55;;;;;;;6.93;100.00;62713.47;5110317;28;20196;-78
2023/12/30 10:04:36;;;;;;;22.88;17.70;;;;;;;7.17;100.00;62735.19;5108176;28;20216;-78
2023/12/30 10:07:04;;;;;;;24.90;17.90;;;;;;;7.38;100.00;62757.38;5108571;28;20253;-78
2023/12/30 10:09:31;;;;;;;25.20;17.30;;;;;;;7.62;100.00;62779.63;5111060;28;20224;-79
2023/12/30 10:11:59;;;;;;;25.10;16.30;;;;;;;7.51;98.56;62772.81;5107838;28;20199;-78
2023/12/30 10:14:25;;;;;;;24.55;17.27;;;;;;;7.72;98.96;62789.41;5109053;28;20220;-79
2023/12/30 10:16:53;;;;;;;22.52;15.98;;;;;;;7.71;96.66;62791.44;5112083;28;20191;-79
2023/12/30 10:19:20;;;;;;;26.30;16.42;;;;;;;7.80;96.48;62798.19;5109226;28;20535;-78
2023/12/30 10:21:47;;;;;;;22.00;16.45;;;;;;;7.75;96.02;62795.03;5111042;28;20192;-78
2023/12/30 10:24:15;;;;;;;23.15;15.35;;;;;;;7.65;96.33;62785.25;5110264;28;20219;-80
2023/12/30 10:26:43;;;;;;;30.20;17.83;;;;;;;7.54;96.24;62771.34;5109861;28;20294;-78
2023/12/30 10:29:12;;;;;;;24.58;15.60;;;;;;;7.46;97.34;62765.63;5108511;28;20226;-78
2023/12/30 10:31:38;;;;;;;26.90;16.33;;;;;;;7.65;97.38;62785.25;5109837;28;20196;-78
2023/12/30 10:34:06;;;;;;;25.10;16.50;;;;;;;7.58;96.35;62780.03;5109104;28;20223;-79
2023/12/30 10:36:33;;;;;;;22.80;15.63;;;;;;;7.82;95.52;62802.25;5108827;28;20208;-79
2023/12/30 10:39:00;;;;;;;23.20;16.73;;;;;;;7.93;94.99;62813.63;5113939;28;20212;-79
2023/12/30 10:41:28;;;;;;;23.30;15.25;;;;;;;8.05;94.17;62828.56;5110745;28;20200;-78
2023/12/30 10:43:56;;;;;;;23.13;15.32;;;;;;;8.13;93.61;62832.25;5108474;28;20275;-78
2023/12/30 10:46:23;;;;;;;19.05;14.07;;;;;;;8.16;92.37;62834.84;5109243;28;20493;-78
2023/12/30 10:48:53;;;;;;;22.13;15.00;;;;;;;8.14;92.25;62833.28;5109431;28;20202;-78
2023/12/30 10:51:22;;;;;;;22.50;14.77;;;;;;;7.92;93.07;62813.09;5110395;28;20196;-79
2023/12/30 10:53:49;;;;;;;24.25;15.98;;;;;;;7.97;93.83;62820.31;5111784;28;20212;-78
2023/12/30 10:56:20;;;;;;;29.40;17.35;;;;;;;7.99;94.18;62817.28;5109480;28;20512;-79
2023/12/30 10:58:48;;;;;;;24.98;15.82;;;;;;;8.14;93.61;62838.34;5108230;28;20202;-79
2023/12/30 11:01:15;;;;;;;29.88;18.02;;;;;;;8.24;93.19;62845.66;5108710;28;20238;-78
2023/12/30 11:03:42;;;;;;;27.50;16.63;;;;;;;8.40;91.95;62861.69;5112846;28;20196;-78
2023/12/30 11:06:13;;;;;;;23.80;17.70;;;;;;;8.21;92.07;62848.13;5110704;28;20195;-79
2023/12/30 11:08:43;;;;;;;29.15;18.73;;;;;;;8.14;93.95;62833.28;5110708;28;20196;-78
2023/12/30 11:11:11;;;;;;;25.70;18.40;;;;;;;8.36;93.28;62857.53;5109856;28;20203;-79
2023/12/30 11:13:38;;;;;;;31.73;20.00;;;;;;;8.57;92.45;62881.78;5107778;28;20253;-80
2023/12/30 11:16:16;;;;;;;28.27;19.25;;;;;;;8.69;91.32;62889.09;5108506;28;20198;-79
2023/12/30 11:18:53;;;;;;;35.00;20.30;;;;;;;8.81;90.87;62899.47;5110848;28;20195;-79
2023/12/30 11:21:40;;;;;;;37.05;21.45;;;;;;;8.72;90.79;62892.72;5109048;28;20512;-78
2023/12/30 11:24:08;;;;;;;33.47;20.63;;;;;;;8.84;90.95;62915.25;5111296;28;20222;-78
2023/12/30 11:26:35;;;;;;;28.90;19.90;;;;;;;8.95;90.23;62919.03;5108355;28;20253;-78